PDT,Max TemperatureF,Mean TemperatureF,Min TemperatureF,Max Dew PointF,MeanDew PointF,Min DewpointF,Max Humidity, Mean Humidity, Min Humidity, Max Sea Level PressureIn, Mean Sea Level PressureIn, Min Sea Level PressureIn, Max VisibilityMiles, Mean VisibilityMiles, Min VisibilityMiles, Max Wind SpeedMPH, Mean Wind SpeedMPH, Max Gust SpeedMPH,PrecipitationIn, CloudCover, Events, WindDirDegrees
2013-6-1,86,65,44,45,41,37,87,49,20,30.13,30.03,29.91,10,10,10,15,3,24,0.00,0,,237
2013-6-2,87,66,46,46,41,32,82,48,14,29.96,29.86,29.75,10,10,10,7,3,,0.00,1,,325
2013-6-3,91,68,46,46,38,25,81,41,10,29.92,29.87,29.81,10,10,10,9,2,16,0.00,0,,8
2013-6-4,95,72,48,54,43,37,76,42,13,29.97,29.92,29.86,10,10,8,8,2,,0.00,0,,285
2013-6-5,98,76,53,52,44,28,82,43,9,30.04,29.97,29.90,10,10,10,9,2,22,0.00,0,,230
2013-6-6,96,74,51,48,44,37,82,41,13,30.02,29.96,29.89,10,10,10,10,2,16,0.00,0,,263
2013-6-7,96,74,51,59,50,41,82,48,20,30.04,29.97,29.89,10,10,10,9,3,,0.00,0,,262
2013-6-8,102,78,55,55,48,36,88,45,11,29.98,29.91,29.84,10,10,10,8,2,,0.00,0,,67
2013-6-9,102,78,55,59,50,43,77,43,15,29.90,29.83,29.72,10,10,10,9,2,,0.00,0,,238
2013-6-10,80,70,59,57,55,54,88,64,42,29.98,29.86,29.81,10,10,10,7,2,,0.00,2,,161
2013-6-11,80,68,50,54,38,27,82,37,17,30.02,29.97,29.93,10,10,10,13,4,22,0.00,1,,228
2013-6-12,73,56,39,39,37,36,87,53,25,30.08,30.03,29.98,10,10,10,18,4,28,0.00,0,,220
2013-6-13,73,56,39,41,38,34,87,55,25,30.19,30.14,30.09,10,10,10,14,3,25,0.00,1,,239
2013-6-14,84,62,39,41,30,14,93,44,8,30.19,30.03,29.89,10,10,10,10,2,17,0.00,0,,14
2013-6-15,84,64,44,41,37,32,76,40,18,30.01,29.94,29.89,10,10,10,13,3,22,0.00,0,,225
2013-6-16,82,63,44,45,38,36,71,40,19,30.11,30.08,30.01,10,10,10,14,4,23,0.00,0,,264
2013-6-17,78,62,46,46,42,37,81,49,23,30.10,30.05,29.98,10,10,10,17,5,26,0.00,0,,257
2013-6-18,68,58,48,45,37,30,76,49,26,30.01,29.99,29.95,10,10,10,16,9,30,0.00,0,,232
2013-6-19,66,54,41,39,37,36,81,52,32,30.08,30.04,30.00,10,10,10,17,7,26,0.00,0,,236
2013-6-20,75,57,39,41,37,32,93,53,21,30.08,30.03,29.97,10,10,10,14,3,22,0.00,0,,233
2013-6-21,80,60,39,45,38,32,87,49,18,30.10,30.05,29.98,10,10,10,9,2,18,0.00,0,,246
2013-6-22,84,64,44,43,40,37,81,45,20,30.07,29.99,29.89,10,10,10,14,3,22,0.00,0,,223
2013-6-23,68,62,57,55,49,39,88,63,40,29.91,29.83,29.77,10,10,5,8,2,,0.03,4,,298
2013-6-24,60,55,50,54,49,39,94,83,48,29.88,29.83,29.76,10,7,2,7,2,,0.17,7,,30
2013-6-25,64,58,53,59,55,52,100,91,77,29.98,29.91,29.84,10,8,2,8,1,,0.33,7,,209
2013-6-26,77,67,57,61,58,55,100,80,50,30.10,30.03,29.97,10,9,4,8,1,,0.03,7,,25
2013-6-27,89,73,57,63,57,50,100,68,26,30.18,30.14,30.10,10,8,0,7,1,,0.00,3,,230
2013-6-28,95,75,55,59,52,39,100,54,15,30.19,30.12,30.03,10,10,10,14,3,21,0.00,0,,227
2013-6-29,96,74,53,54,49,41,88,48,15,30.11,30.04,29.95,10,10,9,9,2,,0.00,0,,238
2013-6-30,98,76,55,61,53,45,88,51,16,30.02,29.95,29.86,10,10,10,10,3,,0.00,0,,229